createdAt,value
2018-12-15T00:00:28.576Z,98.20
2018-12-15T00:02:57.237Z,98.00
2018-12-15T00:05:25.503Z,98.10
2018-12-15T00:07:53.710Z,98.10
2018-12-15T00:10:21.932Z,98.30
2018-12-15T00:12:50.367Z,98.40
2018-12-15T00:15:18.661Z,98.40
2018-12-15T00:17:46.913Z,98.30
2018-12-15T00:20:15.262Z,98.00
2018-12-15T00:22:43.464Z,97.90
2018-12-15T00:25:11.851Z,98.10
2018-12-15T00:27:40.078Z,98.40
2018-12-15T00:30:08.423Z,98.40
2018-12-15T00:32:36.746Z,98.60
2018-12-15T00:35:05.339Z,98.30
2018-12-15T00:37:33.635Z,98.40
2018-12-15T00:40:02.035Z,98.20
2018-12-15T00:42:31.116Z,98.20
2018-12-15T00:44:59.391Z,98.50
2018-12-15T00:47:27.699Z,98.50
2018-12-15T00:49:55.914Z,98.70
2018-12-15T00:52:24.135Z,98.80
2018-12-15T00:54:52.465Z,98.90
2018-12-15T00:57:20.874Z,98.80
2018-12-15T00:59:49.077Z,98.90
2018-12-15T01:02:17.456Z,98.90
2018-12-15T01:04:45.703Z,98.90
2018-12-15T01:07:13.924Z,98.90
2018-12-15T01:09:42.333Z,99.20
2018-12-15T01:12:10.624Z,99.30
2018-12-15T01:14:38.830Z,99.40
2018-12-15T01:17:07.074Z,99.40
2018-12-15T01:19:35.368Z,99.30
2018-12-15T01:22:03.814Z,99.00
2018-12-15T01:24:32.088Z,99.00
2018-12-15T01:27:00.333Z,99.30
2018-12-15T01:29:28.566Z,99.10
2018-12-15T01:31:56.855Z,99.00
2018-12-15T01:34:25.212Z,99.00
2018-12-15T01:36:53.519Z,99.60
2018-12-15T01:39:21.859Z,99.60
2018-12-15T01:41:50.260Z,99.70
2018-12-15T01:44:18.469Z,99.50
2018-12-15T01:46:46.787Z,99.50
2018-12-15T01:49:15.019Z,99.60
2018-12-15T01:51:43.246Z,99.40
2018-12-15T01:54:11.504Z,99.30
2018-12-15T01:56:39.802Z,99.20
2018-12-15T01:59:08.165Z,99.10
2018-12-15T02:01:36.355Z,98.70
2018-12-15T02:04:04.948Z,99.00
2018-12-15T02:06:33.194Z,98.90
2018-12-15T02:09:01.490Z,98.90
2018-12-15T02:11:30.559Z,99.20
2018-12-15T02:13:58.755Z,98.80
2018-12-15T02:16:27.027Z,98.80
2018-12-15T02:18:55.319Z,98.90
2018-12-15T02:21:23.548Z,99.00
2018-12-15T02:23:51.956Z,99.30
2018-12-15T02:26:20.494Z,99.30
2018-12-15T02:28:48.699Z,99.40
2018-12-15T02:31:16.941Z,99.40
2018-12-15T02:33:45.147Z,99.50
2018-12-15T02:36:13.384Z,99.50
2018-12-15T02:38:41.800Z,99.90
2018-12-15T02:41:10.066Z,99.90
2018-12-15T02:43:38.682Z,99.60
2018-12-15T02:46:06.986Z,99.70
2018-12-15T02:48:35.490Z,99.80
2018-12-15T02:51:04.124Z,99.80
2018-12-15T02:53:32.309Z,99.80
2018-12-15T02:56:00.680Z,99.90
2018-12-15T02:58:28.965Z,99.90
2018-12-15T03:00:57.284Z,99.70
2018-12-15T03:03:25.551Z,99.80
2018-12-15T03:05:53.777Z,99.80
2018-12-15T03:08:22.010Z,99.90
2018-12-15T03:10:50.548Z,99.90
2018-12-15T03:13:18.750Z,99.90
2018-12-15T03:15:47.107Z,99.90
2018-12-15T03:18:15.387Z,99.90
2018-12-15T03:20:53.580Z,99.90
2018-12-15T03:23:21.872Z,99.90
2018-12-15T03:25:50.187Z,99.90
2018-12-15T03:28:18.384Z,99.90
2018-12-15T03:30:46.690Z,99.90
2018-12-15T03:33:15.009Z,99.90
2018-12-15T03:35:43.247Z,99.90
2018-12-15T03:38:11.472Z,99.90
2018-12-15T03:40:39.799Z,99.90
2018-12-15T03:43:08.114Z,99.90
2018-12-15T03:45:36.584Z,99.90
2018-12-15T03:48:05.019Z,99.90
2018-12-15T03:50:33.259Z,99.90
2018-12-15T03:53:01.893Z,99.90
2018-12-15T03:55:30.809Z,99.90
2018-12-15T03:57:59.106Z,99.90
2018-12-15T04:00:27.396Z,99.90
2018-12-15T04:02:55.609Z,99.90
2018-12-15T04:05:23.927Z,99.90
2018-12-15T04:07:52.131Z,99.90
2018-12-15T04:10:20.343Z,99.90
2018-12-15T04:12:48.577Z,99.90
2018-12-15T04:15:17.039Z,99.90
2018-12-15T04:17:45.241Z,99.90
2018-12-15T04:20:13.471Z,99.90
2018-12-15T04:22:41.779Z,99.90
2018-12-15T04:25:10.010Z,99.90
2018-12-15T04:27:38.223Z,99.70
2018-12-15T04:30:08.076Z,99.60
2018-12-15T04:32:36.295Z,99.90
2018-12-15T04:35:04.731Z,99.80
2018-12-15T04:37:33.047Z,99.70
2018-12-15T04:40:01.275Z,99.70
2018-12-15T04:42:29.646Z,99.60
2018-12-15T04:44:57.939Z,99.50
2018-12-15T04:47:26.263Z,99.70
2018-12-15T04:49:54.499Z,99.90
2018-12-15T04:52:22.780Z,99.60
2018-12-15T04:54:51.079Z,99.60
2018-12-15T04:57:19.271Z,99.60
2018-12-15T04:59:47.860Z,99.30
2018-12-15T05:02:16.096Z,98.60
2018-12-15T05:04:44.295Z,98.80
2018-12-15T05:07:12.544Z,98.50
2018-12-15T05:09:40.719Z,98.00
2018-12-15T05:12:09.098Z,97.70
2018-12-15T05:14:37.338Z,96.90
2018-12-15T05:23:49.584Z,97.00
2018-12-15T05:26:17.771Z,97.30
2018-12-15T05:28:46.037Z,97.60
2018-12-15T05:31:14.270Z,97.90
2018-12-15T05:33:42.635Z,98.10
2018-12-15T05:36:11.006Z,97.80
2018-12-15T05:38:39.291Z,97.50
2018-12-15T05:41:07.612Z,96.80
2018-12-15T05:43:35.841Z,95.80
2018-12-15T05:46:04.237Z,95.90
2018-12-15T05:48:32.560Z,96.00
2018-12-15T05:51:00.783Z,96.20
2018-12-15T05:53:29.054Z,96.00
2018-12-15T05:55:57.247Z,95.90
2018-12-15T05:58:25.475Z,95.70
2018-12-15T06:00:53.855Z,96.00
2018-12-15T06:03:22.374Z,96.20
2018-12-15T06:05:50.559Z,95.80
2018-12-15T06:08:18.767Z,95.80
2018-12-15T06:10:46.985Z,95.70
2018-12-15T06:13:15.302Z,95.80
2018-12-15T06:15:43.511Z,96.20
2018-12-15T06:18:11.747Z,96.00
2018-12-15T06:20:39.951Z,95.80
2018-12-15T06:23:08.155Z,95.70
2018-12-15T06:25:36.551Z,95.40
2018-12-15T06:28:04.831Z,95.30
2018-12-15T06:30:33.146Z,95.60
2018-12-15T06:33:01.379Z,95.90
2018-12-15T06:35:29.579Z,96.20
2018-12-15T06:37:57.819Z,95.80
2018-12-15T06:40:26.023Z,95.40
2018-12-15T06:42:55.452Z,95.30
2018-12-15T06:45:23.683Z,95.50
2018-12-15T06:47:51.970Z,95.90
2018-12-15T06:50:20.214Z,95.90
2018-12-15T06:52:48.437Z,95.60
2018-12-15T06:55:16.781Z,95.50
2018-12-15T06:57:45.072Z,95.70
2018-12-15T07:01:42.747Z,95.60
2018-12-15T07:04:11.006Z,94.90
2018-12-15T07:06:39.303Z,94.70
2018-12-15T07:09:07.869Z,94.60
2018-12-15T07:11:36.197Z,94.20
2018-12-15T07:14:04.403Z,94.00
2018-12-15T07:16:32.622Z,94.30
2018-12-15T07:19:00.839Z,94.00
2018-12-15T07:21:29.147Z,93.90
2018-12-15T07:23:57.396Z,94.10
2018-12-15T07:26:25.659Z,93.90
2018-12-15T07:28:53.982Z,94.10
2018-12-15T07:31:22.387Z,93.90
2018-12-15T07:33:50.732Z,93.90
2018-12-15T07:36:19.004Z,94.00
2018-12-15T07:38:47.223Z,93.70
2018-12-15T07:41:15.448Z,94.10
2018-12-15T07:43:43.763Z,94.10
2018-12-15T07:46:11.981Z,94.10
2018-12-15T07:48:40.187Z,93.80
2018-12-15T07:51:08.465Z,93.90
2018-12-15T07:53:36.763Z,93.90
2018-12-15T07:56:04.986Z,93.80
2018-12-15T07:58:33.348Z,93.60
2018-12-15T08:01:01.643Z,93.60
2018-12-15T08:03:29.937Z,93.80
2018-12-15T08:05:58.156Z,94.30
2018-12-15T08:08:26.466Z,94.40
2018-12-15T08:11:00.048Z,94.30
2018-12-15T08:13:29.183Z,94.30
2018-12-15T08:15:58.175Z,94.80
2018-12-15T08:18:26.420Z,94.60
2018-12-15T08:20:54.757Z,94.90
2018-12-15T08:23:22.937Z,94.90
2018-12-15T08:25:51.416Z,94.70
2018-12-15T08:28:19.636Z,94.20
2018-12-15T08:30:47.956Z,93.80
2018-12-15T08:33:16.247Z,94.60
2018-12-15T08:35:44.471Z,95.10
2018-12-15T08:38:12.871Z,95.40
2018-12-15T08:40:41.210Z,95.40
2018-12-15T08:43:09.427Z,95.40
2018-12-15T08:45:37.616Z,95.50
2018-12-15T08:48:05.846Z,95.60
2018-12-15T08:50:34.130Z,95.60
2018-12-15T08:53:02.344Z,95.40
2018-12-15T08:55:30.707Z,95.30
2018-12-15T08:57:58.910Z,95.20
2018-12-15T09:00:27.291Z,95.50
2018-12-15T09:02:56.122Z,95.30
2018-12-15T09:05:24.522Z,95.10
2018-12-15T09:07:52.725Z,95.70
2018-12-15T09:10:21.212Z,95.20
2018-12-15T09:12:49.432Z,95.20
2018-12-15T09:15:17.676Z,95.20
2018-12-15T09:17:46.102Z,95.30
2018-12-15T09:20:14.331Z,95.20
2018-12-15T09:22:42.710Z,95.00
2018-12-15T09:25:10.935Z,95.10
2018-12-15T09:27:39.249Z,95.00
2018-12-15T09:30:07.970Z,95.60
2018-12-15T09:32:36.194Z,96.10
2018-12-15T09:35:04.740Z,95.90
2018-12-15T09:39:02.524Z,95.40
2018-12-15T09:41:30.778Z,95.70
2018-12-15T09:43:59.173Z,95.40
2018-12-15T09:46:27.435Z,95.40
2018-12-15T09:48:55.751Z,95.50
2018-12-15T09:51:24.121Z,95.60
2018-12-15T09:53:52.323Z,95.50
2018-12-15T09:56:20.559Z,95.30
2018-12-15T09:58:48.912Z,95.30
2018-12-15T10:01:18.806Z,95.40
2018-12-15T10:03:47.264Z,94.90
2018-12-15T10:06:15.976Z,94.90
2018-12-15T10:08:44.436Z,94.50
2018-12-15T10:11:12.659Z,93.60
2018-12-15T10:13:40.889Z,93.30
2018-12-15T10:16:09.261Z,93.70
2018-12-15T10:18:37.529Z,94.10
2018-12-15T10:21:05.896Z,94.50
2018-12-15T10:23:34.163Z,94.10
2018-12-15T10:26:02.403Z,94.00
2018-12-15T10:28:31.042Z,94.00
2018-12-15T10:31:04.793Z,94.60
2018-12-15T10:33:33.184Z,95.00
2018-12-15T10:36:01.399Z,95.30
2018-12-15T10:38:29.655Z,95.30
2018-12-15T10:40:57.943Z,95.60
2018-12-15T10:43:26.170Z,95.20
2018-12-15T10:45:54.386Z,94.40
2018-12-15T10:48:22.620Z,93.70
2018-12-15T10:50:51.414Z,93.60
2018-12-15T10:53:19.640Z,93.90
2018-12-15T10:55:47.860Z,93.60
2018-12-15T10:58:16.059Z,93.60
2018-12-15T11:00:49.791Z,93.70
2018-12-15T11:03:18.031Z,93.70
2018-12-15T11:05:46.267Z,93.40
2018-12-15T11:08:14.507Z,92.90
2018-12-15T11:10:42.739Z,93.00
2018-12-15T11:13:11.235Z,93.20
2018-12-15T11:15:39.549Z,93.10
2018-12-15T11:18:07.956Z,93.10
2018-12-15T11:20:36.151Z,93.10
2018-12-15T11:23:04.388Z,93.40
2018-12-15T11:25:32.671Z,94.10
2018-12-15T11:28:01.039Z,94.20
2018-12-15T11:30:29.546Z,93.10
2018-12-15T11:32:57.818Z,93.00
2018-12-15T11:35:26.344Z,93.00
2018-12-15T11:37:54.588Z,92.70
2018-12-15T11:40:22.963Z,92.10
2018-12-15T11:42:51.223Z,92.10
2018-12-15T11:45:19.699Z,91.90
2018-12-15T11:47:47.910Z,92.00
2018-12-15T11:50:16.127Z,92.00
2018-12-15T11:52:44.374Z,92.30
2018-12-15T11:55:12.591Z,92.30
2018-12-15T11:57:40.870Z,92.70
2018-12-15T12:00:09.631Z,92.10
2018-12-15T12:02:37.877Z,92.00
2018-12-15T12:05:06.723Z,91.80
2018-12-15T12:07:35.231Z,91.40
2018-12-15T12:10:03.667Z,91.40
2018-12-15T12:12:31.995Z,91.20
2018-12-15T12:15:00.270Z,91.00
2018-12-15T12:17:28.490Z,91.10
2018-12-15T12:19:56.795Z,90.90
2018-12-15T12:22:25.223Z,90.70
2018-12-15T12:24:53.452Z,90.90
2018-12-15T12:27:21.772Z,91.50
2018-12-15T12:29:49.979Z,92.00
2018-12-15T12:32:18.252Z,91.90
2018-12-15T12:34:46.491Z,91.80
2018-12-15T12:37:14.819Z,91.70
2018-12-15T12:39:43.234Z,91.80
2018-12-15T12:42:11.703Z,91.10
2018-12-15T12:44:39.940Z,90.60
2018-12-15T12:47:08.183Z,90.40
2018-12-15T12:49:36.395Z,90.60
2018-12-15T12:52:04.861Z,90.50
2018-12-15T12:54:33.093Z,90.70
2018-12-15T12:57:01.371Z,91.00
2018-12-15T12:59:29.634Z,91.20
2018-12-15T13:01:58.088Z,91.20
2018-12-15T13:04:26.473Z,90.80
2018-12-15T13:06:54.715Z,90.60
2018-12-15T13:09:22.903Z,90.70
2018-12-15T13:11:51.182Z,90.50
2018-12-15T13:14:19.479Z,90.80
2018-12-15T13:16:47.718Z,91.00
2018-12-15T13:19:16.310Z,90.70
2018-12-15T13:21:44.594Z,90.40
2018-12-15T13:24:12.959Z,90.30
2018-12-15T13:26:41.371Z,89.90
2018-12-15T13:29:09.609Z,89.90
2018-12-15T13:31:38.190Z,90.10
2018-12-15T13:34:06.759Z,90.10
2018-12-15T13:36:35.001Z,90.00
2018-12-15T13:39:04.528Z,90.20
2018-12-15T13:41:33.172Z,90.20
2018-12-15T13:44:01.411Z,90.40
2018-12-15T13:46:30.080Z,90.50
2018-12-15T13:48:59.291Z,90.40
2018-12-15T13:51:27.652Z,90.40
2018-12-15T13:53:55.989Z,90.40
2018-12-15T13:56:24.239Z,90.60
2018-12-15T13:58:52.543Z,90.60
2018-12-15T14:01:20.783Z,90.60
2018-12-15T14:03:50.792Z,90.70
2018-12-15T14:06:18.989Z,90.50
2018-12-15T14:08:47.284Z,90.80
2018-12-15T14:11:15.919Z,90.90
2018-12-15T14:13:44.171Z,90.80
2018-12-15T14:16:12.447Z,91.00
2018-12-15T14:18:40.844Z,91.20
2018-12-15T14:21:09.197Z,91.20
2018-12-15T14:23:37.436Z,91.00
2018-12-15T14:26:05.653Z,90.80
2018-12-15T14:28:33.983Z,91.00
2018-12-15T14:31:02.413Z,91.00
2018-12-15T14:33:30.876Z,91.50
2018-12-15T14:35:59.367Z,92.20
2018-12-15T14:38:27.807Z,92.20
2018-12-15T14:40:56.104Z,92.00
2018-12-15T14:43:24.347Z,92.20
2018-12-15T14:45:52.870Z,92.00
2018-12-15T14:48:21.143Z,92.10
2018-12-15T14:50:49.515Z,92.00
2018-12-15T14:53:17.752Z,92.30
2018-12-15T14:55:46.638Z,92.50
2018-12-15T14:58:14.946Z,92.70
2018-12-15T15:00:43.196Z,92.80
2018-12-15T15:03:11.467Z,92.90
2018-12-15T15:05:39.703Z,93.20
2018-12-15T15:08:07.982Z,92.40
2018-12-15T15:10:36.261Z,92.00
2018-12-15T15:13:04.587Z,92.20
2018-12-15T15:15:32.795Z,92.60
2018-12-15T15:18:01.091Z,92.70
2018-12-15T15:20:29.856Z,92.60
2018-12-15T15:22:58.610Z,92.40
2018-12-15T15:25:27.047Z,92.30
2018-12-15T15:27:55.368Z,92.60
2018-12-15T15:30:23.841Z,92.50
2018-12-15T15:32:52.258Z,92.50
2018-12-15T15:35:20.471Z,92.10
2018-12-15T15:37:48.660Z,92.20
2018-12-15T15:40:17.175Z,92.30
2018-12-15T15:42:45.419Z,92.40
2018-12-15T15:45:13.806Z,92.40
2018-12-15T15:47:41.992Z,92.40
2018-12-15T15:50:10.306Z,92.30
2018-12-15T15:52:38.586Z,91.70
2018-12-15T15:55:07.484Z,91.80
2018-12-15T15:57:35.724Z,92.30
2018-12-15T16:00:05.111Z,92.10
2018-12-15T16:02:33.419Z,92.20
2018-12-15T16:05:02.434Z,92.30
2018-12-15T16:07:31.091Z,92.20
2018-12-15T16:09:59.351Z,92.30
2018-12-15T16:12:27.568Z,92.30
2018-12-15T16:14:55.891Z,92.30
2018-12-15T16:17:24.284Z,92.50
2018-12-15T16:19:52.555Z,92.70
2018-12-15T16:22:21.027Z,92.90
2018-12-15T16:24:49.465Z,92.60
2018-12-15T16:27:17.684Z,91.90
2018-12-15T16:29:45.926Z,91.90
2018-12-15T16:32:14.307Z,92.10
2018-12-15T16:34:42.523Z,91.90
2018-12-15T16:37:10.791Z,92.00
2018-12-15T16:39:39.239Z,92.30
2018-12-15T16:42:07.460Z,92.70
2018-12-15T16:44:35.682Z,92.80
2018-12-15T16:47:04.006Z,92.50
2018-12-15T16:49:32.239Z,92.60
2018-12-15T16:58:44.591Z,92.80
2018-12-15T17:01:12.807Z,92.60
2018-12-15T17:03:41.079Z,92.70
2018-12-15T17:06:09.384Z,92.70
2018-12-15T17:08:37.875Z,92.90
2018-12-15T17:11:06.111Z,92.80
2018-12-15T17:13:34.335Z,92.60
2018-12-15T17:16:02.675Z,92.20
2018-12-15T17:18:30.942Z,92.60
2018-12-15T17:20:59.424Z,93.20
2018-12-15T17:23:27.596Z,93.40
2018-12-15T17:25:55.803Z,93.00
2018-12-15T17:28:24.030Z,93.00
2018-12-15T17:30:52.459Z,93.00
2018-12-15T17:33:20.679Z,92.90
2018-12-15T17:35:48.992Z,92.90
2018-12-15T17:38:17.231Z,92.80
2018-12-15T17:40:45.492Z,92.00
2018-12-15T17:43:13.783Z,91.90
2018-12-15T17:45:42.906Z,92.50
2018-12-15T17:48:11.124Z,91.90
2018-12-15T17:50:39.519Z,91.70
2018-12-15T17:53:07.767Z,91.10
2018-12-15T17:55:35.968Z,91.00
2018-12-15T17:58:04.272Z,90.90
2018-12-15T18:00:32.635Z,90.80
2018-12-15T18:03:00.849Z,91.00
2018-12-15T18:05:29.046Z,91.10
2018-12-15T18:07:57.259Z,91.20
2018-12-15T18:10:25.473Z,91.50
2018-12-15T18:12:53.703Z,91.40
2018-12-15T18:15:21.926Z,91.30
2018-12-15T18:17:51.122Z,91.20
2018-12-15T18:20:19.323Z,90.60
2018-12-15T18:22:47.574Z,90.70
2018-12-15T18:25:15.794Z,90.90
2018-12-15T18:27:44.014Z,91.10
2018-12-15T18:30:12.399Z,90.90
2018-12-15T18:32:40.605Z,90.90
2018-12-15T18:35:09.016Z,90.50
2018-12-15T18:37:37.352Z,90.10
2018-12-15T18:40:06.719Z,90.20
2018-12-15T18:42:34.926Z,90.10
2018-12-15T18:45:03.237Z,90.10
2018-12-15T18:47:31.507Z,90.70
2018-12-15T18:49:59.719Z,90.30
2018-12-15T18:52:28.079Z,90.50
2018-12-15T18:54:56.595Z,90.30
2018-12-15T18:57:24.781Z,90.40
2018-12-15T18:59:53.995Z,90.70
2018-12-15T19:02:22.379Z,90.80
2018-12-15T19:04:50.573Z,90.90
2018-12-15T19:07:18.892Z,90.90
2018-12-15T19:09:47.366Z,90.70
2018-12-15T19:12:15.618Z,90.50
2018-12-15T19:14:43.852Z,90.40
2018-12-15T19:17:12.108Z,90.50
2018-12-15T19:19:40.418Z,90.50
2018-12-15T19:22:08.796Z,90.50
2018-12-15T19:24:37.141Z,90.80
2018-12-15T19:27:05.348Z,91.20
2018-12-15T19:29:33.557Z,91.30
2018-12-15T19:32:01.770Z,91.60
2018-12-15T19:34:30.015Z,91.70
2018-12-15T19:36:58.251Z,91.80
2018-12-15T19:39:26.664Z,92.00
2018-12-15T19:41:54.894Z,92.20
2018-12-15T19:44:23.595Z,92.60
2018-12-15T19:46:51.796Z,93.00
2018-12-15T19:49:20.084Z,93.10
2018-12-15T19:51:48.419Z,93.20
2018-12-15T19:54:16.653Z,93.40
2018-12-15T19:56:44.948Z,93.50
2018-12-15T19:59:15.230Z,93.90
2018-12-15T20:01:44.014Z,94.00
2018-12-15T20:04:12.260Z,94.10
2018-12-15T20:06:40.830Z,94.30
2018-12-15T20:09:09.854Z,94.50
2018-12-15T20:11:38.327Z,94.90
2018-12-15T20:14:06.571Z,95.20
2018-12-15T20:16:34.942Z,95.30
2018-12-15T20:19:03.215Z,95.50
2018-12-15T20:21:35.981Z,95.80
2018-12-15T20:24:01.620Z,95.90
2018-12-15T20:26:29.859Z,96.20
2018-12-15T20:28:58.088Z,96.20
2018-12-15T20:31:26.319Z,96.20
2018-12-15T20:33:54.666Z,96.30
2018-12-15T20:36:22.929Z,96.40
2018-12-15T20:38:51.135Z,96.60
2018-12-15T20:41:19.373Z,96.80
2018-12-15T20:43:47.693Z,97.30
2018-12-15T20:46:15.881Z,97.30
2018-12-15T20:48:44.122Z,97.50
2018-12-15T20:51:12.747Z,97.80
2018-12-15T20:53:41.004Z,98.00
2018-12-15T20:56:09.292Z,98.00
2018-12-15T20:58:37.486Z,98.20
2018-12-15T21:01:05.729Z,98.30
2018-12-15T21:03:33.911Z,98.60
2018-12-15T21:06:02.135Z,98.90
2018-12-15T21:08:30.339Z,99.20
2018-12-15T21:10:58.550Z,99.50
2018-12-15T21:13:27.114Z,99.80
2018-12-15T21:15:58.366Z,99.90
2018-12-15T21:18:26.810Z,99.90
2018-12-15T21:20:55.028Z,99.90
2018-12-15T21:23:23.258Z,99.90
2018-12-15T21:25:51.536Z,99.90
2018-12-15T21:28:19.836Z,99.90
2018-12-15T21:30:48.064Z,99.90
2018-12-15T21:33:16.351Z,99.90
2018-12-15T21:35:44.737Z,99.90
2018-12-15T21:38:12.972Z,99.90
2018-12-15T21:40:41.379Z,99.90
2018-12-15T21:43:09.588Z,99.90
2018-12-15T21:45:37.922Z,99.90
2018-12-15T21:48:06.366Z,99.90
2018-12-15T21:50:34.586Z,99.90
2018-12-15T21:53:02.951Z,99.90
2018-12-15T21:55:31.233Z,99.90
2018-12-15T21:57:59.780Z,99.90
2018-12-15T22:00:28.066Z,99.90
2018-12-15T22:02:56.366Z,99.90
2018-12-15T22:05:24.583Z,99.90
2018-12-15T22:07:53.083Z,99.90
2018-12-15T22:10:21.327Z,99.90
2018-12-15T22:12:49.627Z,99.90
2018-12-15T22:15:17.859Z,99.90
2018-12-15T22:17:46.074Z,99.90
2018-12-15T22:20:15.108Z,99.90
2018-12-15T22:22:43.441Z,99.90
2018-12-15T22:25:11.643Z,99.90
2018-12-15T22:27:39.922Z,99.90
2018-12-15T22:30:09.303Z,99.90
2018-12-15T22:32:37.541Z,99.90
2018-12-15T22:35:06.111Z,99.90
2018-12-15T22:37:34.366Z,99.90
2018-12-15T22:40:02.672Z,99.90
2018-12-15T22:42:31.181Z,99.90
2018-12-15T22:44:59.425Z,99.90
2018-12-15T22:47:27.650Z,99.90
2018-12-15T22:49:55.895Z,99.90
2018-12-15T22:52:24.103Z,99.90
2018-12-15T22:54:52.343Z,99.90
2018-12-15T22:57:20.559Z,99.90
2018-12-15T22:59:48.791Z,99.90
2018-12-15T23:02:16.999Z,99.90
2018-12-15T23:04:45.402Z,99.90
2018-12-15T23:07:13.655Z,99.90
2018-12-15T23:09:42.083Z,99.90
2018-12-15T23:12:10.299Z,99.90
2018-12-15T23:14:38.623Z,99.90
2018-12-15T23:17:06.859Z,99.90
2018-12-15T23:19:35.093Z,99.90
2018-12-15T23:22:03.311Z,99.90
2018-12-15T23:24:31.538Z,99.90
2018-12-15T23:27:00.122Z,99.90
2018-12-15T23:29:28.304Z,99.90
2018-12-15T23:31:56.549Z,99.90
2018-12-15T23:34:24.772Z,99.90
2018-12-15T23:36:53.088Z,99.90
2018-12-15T23:39:21.745Z,99.90
2018-12-15T23:41:49.959Z,99.90
2018-12-15T23:44:18.445Z,99.90
2018-12-15T23:46:46.651Z,99.90
2018-12-15T23:49:15.255Z,99.90
2018-12-15T23:51:43.529Z,99.90
2018-12-15T23:54:11.727Z,99.90
2018-12-15T23:56:39.968Z,99.90
2018-12-15T23:59:08.259Z,99.90
